Аэропорт: Пулково. Санкт-Петербург

ICAO: ULLI

METAR:
2019-12-12 10:00:00
ULLI 121000Z 20003G09MPS 120V260 9999 OVC015 M00/M04 Q1014 R88/290050 NOSIG
METAR:
2019-12-12 08:00:00
TAF ULLI 120800Z 1209/1309 19006MPS 9999 BKN013 BKN025 TEMPO 1209/1217 20006G12MPS -SHSN BKN011 BKN020CB BECMG 1217/1218 4000 BR BKN011 BKN017 TEMPO 1218/1305 17006G12MPS 2100 -SN -FZDZ BKN007 BKN015 BECMG 1305/1306 9999 NSW TEMPO 1306/1309 18006G12MPS 3100 -SHSNRA BKN011 BKN017CB